sensor_id;sensor_type;location;lat;lon;timestamp;P1;durP1;ratioP1;P2;durP2;ratioP2
56736;SDS011;42618;51.226;4.910;2023-08-30T00:01:26;8.52;;;4.85;;
56736;SDS011;42618;51.226;4.910;2023-08-30T00:03:53;7.40;;;5.45;;
56736;SDS011;42618;51.226;4.910;2023-08-30T00:06:21;9.07;;;5.38;;
56736;SDS011;42618;51.226;4.910;2023-08-30T00:08:47;12.07;;;5.68;;
56736;SDS011;42618;51.226;4.910;2023-08-30T00:11:14;10.00;;;5.97;;
56736;SDS011;42618;51.226;4.910;2023-08-30T00:13:41;8.75;;;5.22;;
56736;SDS011;42618;51.226;4.910;2023-08-30T00:16:08;12.30;;;6.15;;
56736;SDS011;42618;51.226;4.910;2023-08-30T00:18:35;8.52;;;5.40;;
56736;SDS011;42618;51.226;4.910;2023-08-30T00:21:02;12.55;;;5.90;;
56736;SDS011;42618;51.226;4.910;2023-08-30T00:23:29;12.20;;;6.43;;
56736;SDS011;42618;51.226;4.910;2023-08-30T00:25:55;12.48;;;5.60;;
56736;SDS011;42618;51.226;4.910;2023-08-30T00:28:22;9.07;;;6.03;;
56736;SDS011;42618;51.226;4.910;2023-08-30T00:30:53;11.73;;;6.15;;
56736;SDS011;42618;51.226;4.910;2023-08-30T00:33:20;10.80;;;5.85;;
56736;SDS011;42618;51.226;4.910;2023-08-30T00:35:54;11.75;;;6.28;;
56736;SDS011;42618;51.226;4.910;2023-08-30T00:38:22;10.55;;;5.78;;
56736;SDS011;42618;51.226;4.910;2023-08-30T00:40:49;12.43;;;5.82;;
56736;SDS011;42618;51.226;4.910;2023-08-30T00:43:16;13.30;;;6.20;;
56736;SDS011;42618;51.226;4.910;2023-08-30T00:45:42;12.23;;;6.30;;
56736;SDS011;42618;51.226;4.910;2023-08-30T00:48:10;14.18;;;5.95;;
56736;SDS011;42618;51.226;4.910;2023-08-30T00:50:38;13.90;;;6.57;;
56736;SDS011;42618;51.226;4.910;2023-08-30T00:53:06;9.75;;;5.88;;
56736;SDS011;42618;51.226;4.910;2023-08-30T00:55:37;10.65;;;6.10;;
56736;SDS011;42618;51.226;4.910;2023-08-30T00:58:04;10.45;;;5.90;;
56736;SDS011;42618;51.226;4.910;2023-08-30T01:02:59;12.85;;;6.10;;
56736;SDS011;42618;51.226;4.910;2023-08-30T01:05:26;8.90;;;5.87;;
56736;SDS011;42618;51.226;4.910;2023-08-30T01:07:54;7.63;;;5.40;;
56736;SDS011;42618;51.226;4.910;2023-08-30T01:10:24;9.93;;;5.80;;
56736;SDS011;42618;51.226;4.910;2023-08-30T01:13:01;8.32;;;5.45;;
56736;SDS011;42618;51.226;4.910;2023-08-30T01:15:35;9.95;;;6.10;;
56736;SDS011;42618;51.226;4.910;2023-08-30T01:18:03;12.13;;;6.03;;
56736;SDS011;42618;51.226;4.910;2023-08-30T01:20:34;8.50;;;5.88;;
56736;SDS011;42618;51.226;4.910;2023-08-30T01:23:09;9.82;;;6.25;;
56736;SDS011;42618;51.226;4.910;2023-08-30T01:26:04;9.77;;;6.13;;
56736;SDS011;42618;51.226;4.910;2023-08-30T01:28:33;10.18;;;6.43;;
56736;SDS011;42618;51.226;4.910;2023-08-30T01:31:02;10.80;;;6.88;;
56736;SDS011;42618;51.226;4.910;2023-08-30T01:33:29;10.65;;;6.45;;
56736;SDS011;42618;51.226;4.910;2023-08-30T01:35:59;11.05;;;6.55;;
56736;SDS011;42618;51.226;4.910;2023-08-30T01:38:28;10.63;;;6.80;;
56736;SDS011;42618;51.226;4.910;2023-08-30T01:40:56;12.20;;;7.72;;
56736;SDS011;42618;51.226;4.910;2023-08-30T01:43:24;14.90;;;8.20;;
56736;SDS011;42618;51.226;4.910;2023-08-30T01:45:55;12.57;;;7.90;;
56736;SDS011;42618;51.226;4.910;2023-08-30T01:48:28;14.70;;;8.40;;
56736;SDS011;42618;51.226;4.910;2023-08-30T01:50:56;17.75;;;8.80;;
56736;SDS011;42618;51.226;4.910;2023-08-30T01:53:26;13.43;;;8.48;;
56736;SDS011;42618;51.226;4.910;2023-08-30T01:55:54;15.73;;;8.32;;
56736;SDS011;42618;51.226;4.910;2023-08-30T01:58:21;17.98;;;8.85;;
56736;SDS011;42618;51.226;4.910;2023-08-30T02:00:48;18.23;;;8.50;;
56736;SDS011;42618;51.226;4.910;2023-08-30T02:03:15;14.90;;;8.60;;
56736;SDS011;42618;51.226;4.910;2023-08-30T02:05:52;14.80;;;8.65;;
56736;SDS011;42618;51.226;4.910;2023-08-30T02:08:22;15.48;;;8.10;;
56736;SDS011;42618;51.226;4.910;2023-08-30T02:11:01;14.75;;;8.10;;
56736;SDS011;42618;51.226;4.910;2023-08-30T02:13:32;13.85;;;7.85;;
56736;SDS011;42618;51.226;4.910;2023-08-30T02:16:01;14.20;;;8.10;;
56736;SDS011;42618;51.226;4.910;2023-08-30T02:20:57;12.25;;;7.97;;
56736;SDS011;42618;51.226;4.910;2023-08-30T02:23:24;12.57;;;7.93;;
56736;SDS011;42618;51.226;4.910;2023-08-30T02:25:53;15.25;;;8.05;;
56736;SDS011;42618;51.226;4.910;2023-08-30T02:28:20;13.68;;;7.38;;
56736;SDS011;42618;51.226;4.910;2023-08-30T02:30:47;14.52;;;7.20;;
56736;SDS011;42618;51.226;4.910;2023-08-30T02:33:15;12.50;;;7.72;;
56736;SDS011;42618;51.226;4.910;2023-08-30T02:35:43;12.50;;;7.20;;
56736;SDS011;42618;51.226;4.910;2023-08-30T02:38:10;12.55;;;7.22;;
56736;SDS011;42618;51.226;4.910;2023-08-30T02:40:37;12.38;;;7.05;;
56736;SDS011;42618;51.226;4.910;2023-08-30T02:43:03;10.82;;;7.05;;
56736;SDS011;42618;51.226;4.910;2023-08-30T02:45:30;13.25;;;6.88;;
56736;SDS011;42618;51.226;4.910;2023-08-30T02:47:57;14.35;;;7.13;;
56736;SDS011;42618;51.226;4.910;2023-08-30T02:50:25;10.30;;;6.85;;
56736;SDS011;42618;51.226;4.910;2023-08-30T02:52:52;13.17;;;6.70;;
56736;SDS011;42618;51.226;4.910;2023-08-30T02:55:19;11.25;;;6.65;;
56736;SDS011;42618;51.226;4.910;2023-08-30T02:57:46;14.07;;;6.70;;
56736;SDS011;42618;51.226;4.910;2023-08-30T03:00:14;11.38;;;6.10;;
56736;SDS011;42618;51.226;4.910;2023-08-30T03:02:45;10.93;;;6.47;;
56736;SDS011;42618;51.226;4.910;2023-08-30T03:05:13;15.75;;;6.28;;
56736;SDS011;42618;51.226;4.910;2023-08-30T03:07:40;8.80;;;5.80;;
56736;SDS011;42618;51.226;4.910;2023-08-30T03:10:07;11.27;;;6.43;;
56736;SDS011;42618;51.226;4.910;2023-08-30T03:12:36;9.23;;;5.78;;
56736;SDS011;42618;51.226;4.910;2023-08-30T03:15:02;12.15;;;5.63;;
56736;SDS011;42618;51.226;4.910;2023-08-30T03:19:58;8.52;;;5.50;;
56736;SDS011;42618;51.226;4.910;2023-08-30T03:22:28;9.10;;;5.38;;
56736;SDS011;42618;51.226;4.910;2023-08-30T03:24:54;10.25;;;5.57;;
56736;SDS011;42618;51.226;4.910;2023-08-30T03:27:21;9.32;;;5.75;;
56736;SDS011;42618;51.226;4.910;2023-08-30T03:29:48;9.95;;;5.55;;
56736;SDS011;42618;51.226;4.910;2023-08-30T03:32:16;10.30;;;5.55;;
56736;SDS011;42618;51.226;4.910;2023-08-30T03:34:47;10.38;;;5.82;;
56736;SDS011;42618;51.226;4.910;2023-08-30T03:37:14;11.23;;;5.35;;
56736;SDS011;42618;51.226;4.910;2023-08-30T03:39:42;7.80;;;5.78;;
56736;SDS011;42618;51.226;4.910;2023-08-30T03:42:09;9.70;;;5.65;;
56736;SDS011;42618;51.226;4.910;2023-08-30T03:47:05;8.98;;;5.50;;
56736;SDS011;42618;51.226;4.910;2023-08-30T03:49:32;9.63;;;5.33;;
56736;SDS011;42618;51.226;4.910;2023-08-30T03:51:59;10.40;;;5.70;;
56736;SDS011;42618;51.226;4.910;2023-08-30T03:54:27;9.93;;;6.35;;
56736;SDS011;42618;51.226;4.910;2023-08-30T03:56:53;9.75;;;5.38;;
56736;SDS011;42618;51.226;4.910;2023-08-30T03:59:20;8.27;;;5.50;;
56736;SDS011;42618;51.226;4.910;2023-08-30T04:01:52;7.53;;;5.53;;
56736;SDS011;42618;51.226;4.910;2023-08-30T04:04:20;9.85;;;5.00;;
56736;SDS011;42618;51.226;4.910;2023-08-30T04:06:47;7.45;;;5.25;;
56736;SDS011;42618;51.226;4.910;2023-08-30T04:09:15;9.98;;;5.20;;
56736;SDS011;42618;51.226;4.910;2023-08-30T04:11:42;11.27;;;5.25;;
56736;SDS011;42618;51.226;4.910;2023-08-30T04:14:09;6.82;;;4.57;;
56736;SDS011;42618;51.226;4.910;2023-08-30T04:16:36;10.30;;;4.82;;
56736;SDS011;42618;51.226;4.910;2023-08-30T04:19:06;9.00;;;5.10;;
56736;SDS011;42618;51.226;4.910;2023-08-30T04:21:33;10.07;;;5.13;;
56736;SDS011;42618;51.226;4.910;2023-08-30T04:24:00;8.70;;;4.85;;
56736;SDS011;42618;51.226;4.910;2023-08-30T04:26:26;8.43;;;4.70;;
56736;SDS011;42618;51.226;4.910;2023-08-30T04:28:53;8.05;;;4.65;;
56736;SDS011;42618;51.226;4.910;2023-08-30T04:31:20;9.30;;;4.50;;
56736;SDS011;42618;51.226;4.910;2023-08-30T04:33:47;9.13;;;4.95;;
56736;SDS011;42618;51.226;4.910;2023-08-30T04:36:13;8.73;;;4.53;;
56736;SDS011;42618;51.226;4.910;2023-08-30T04:38:40;8.05;;;4.63;;
56736;SDS011;42618;51.226;4.910;2023-08-30T04:41:22;8.63;;;5.07;;
56736;SDS011;42618;51.226;4.910;2023-08-30T04:43:49;10.35;;;5.00;;
56736;SDS011;42618;51.226;4.910;2023-08-30T04:46:16;8.40;;;4.72;;
56736;SDS011;42618;51.226;4.910;2023-08-30T04:48:42;6.72;;;4.07;;
56736;SDS011;42618;51.226;4.910;2023-08-30T04:51:10;9.15;;;4.85;;
56736;SDS011;42618;51.226;4.910;2023-08-30T04:53:37;9.45;;;4.50;;
56736;SDS011;42618;51.226;4.910;2023-08-30T04:56:10;8.45;;;4.82;;
56736;SDS011;42618;51.226;4.910;2023-08-30T04:58:38;10.57;;;5.00;;
56736;SDS011;42618;51.226;4.910;2023-08-30T05:01:08;8.93;;;5.10;;
56736;SDS011;42618;51.226;4.910;2023-08-30T05:03:37;9.02;;;5.10;;
56736;SDS011;42618;51.226;4.910;2023-08-30T05:06:07;11.25;;;5.20;;
56736;SDS011;42618;51.226;4.910;2023-08-30T05:08:34;9.40;;;4.88;;
56736;SDS011;42618;51.226;4.910;2023-08-30T05:11:01;9.07;;;4.50;;
56736;SDS011;42618;51.226;4.910;2023-08-30T05:13:32;12.02;;;4.90;;
56736;SDS011;42618;51.226;4.910;2023-08-30T05:15:59;9.32;;;4.00;;
56736;SDS011;42618;51.226;4.910;2023-08-30T05:18:27;12.13;;;4.35;;
56736;SDS011;42618;51.226;4.910;2023-08-30T05:20:53;11.40;;;4.80;;
56736;SDS011;42618;51.226;4.910;2023-08-30T05:23:20;11.38;;;4.88;;
56736;SDS011;42618;51.226;4.910;2023-08-30T05:25:47;9.77;;;4.20;;
56736;SDS011;42618;51.226;4.910;2023-08-30T05:28:15;8.95;;;4.60;;
56736;SDS011;42618;51.226;4.910;2023-08-30T05:30:42;9.77;;;4.63;;
56736;SDS011;42618;51.226;4.910;2023-08-30T05:33:25;8.68;;;4.13;;
56736;SDS011;42618;51.226;4.910;2023-08-30T05:36:01;10.60;;;4.17;;
56736;SDS011;42618;51.226;4.910;2023-08-30T05:38:54;9.60;;;4.20;;
56736;SDS011;42618;51.226;4.910;2023-08-30T05:41:31;10.02;;;4.13;;
56736;SDS011;42618;51.226;4.910;2023-08-30T05:43:58;9.30;;;4.50;;
56736;SDS011;42618;51.226;4.910;2023-08-30T05:46:24;13.30;;;4.88;;
56736;SDS011;42618;51.226;4.910;2023-08-30T05:48:51;10.35;;;4.13;;
56736;SDS011;42618;51.226;4.910;2023-08-30T05:51:18;8.48;;;3.80;;
56736;SDS011;42618;51.226;4.910;2023-08-30T05:56:14;9.15;;;4.32;;
56736;SDS011;42618;51.226;4.910;2023-08-30T05:58:40;11.43;;;4.30;;
56736;SDS011;42618;51.226;4.910;2023-08-30T06:01:07;11.68;;;4.70;;
56736;SDS011;42618;51.226;4.910;2023-08-30T06:03:34;11.23;;;4.40;;
56736;SDS011;42618;51.226;4.910;2023-08-30T06:06:01;8.43;;;4.72;;
56736;SDS011;42618;51.226;4.910;2023-08-30T06:08:28;13.85;;;5.22;;
56736;SDS011;42618;51.226;4.910;2023-08-30T06:10:55;9.27;;;3.78;;
56736;SDS011;42618;51.226;4.910;2023-08-30T06:13:22;13.25;;;5.25;;
56736;SDS011;42618;51.226;4.910;2023-08-30T06:15:50;11.30;;;4.80;;
56736;SDS011;42618;51.226;4.910;2023-08-30T06:18:18;10.63;;;5.63;;
56736;SDS011;42618;51.226;4.910;2023-08-30T06:20:45;12.88;;;4.90;;
56736;SDS011;42618;51.226;4.910;2023-08-30T06:23:12;10.18;;;4.43;;
56736;SDS011;42618;51.226;4.910;2023-08-30T06:25:40;12.18;;;4.75;;
56736;SDS011;42618;51.226;4.910;2023-08-30T06:28:07;9.40;;;4.78;;
56736;SDS011;42618;51.226;4.910;2023-08-30T06:30:34;14.73;;;7.18;;
56736;SDS011;42618;51.226;4.910;2023-08-30T06:33:01;9.68;;;5.10;;
56736;SDS011;42618;51.226;4.910;2023-08-30T06:35:27;12.32;;;5.40;;
56736;SDS011;42618;51.226;4.910;2023-08-30T06:37:54;9.98;;;4.60;;
56736;SDS011;42618;51.226;4.910;2023-08-30T06:40:22;9.77;;;5.18;;
56736;SDS011;42618;51.226;4.910;2023-08-30T06:42:49;8.68;;;4.47;;
56736;SDS011;42618;51.226;4.910;2023-08-30T06:45:15;8.85;;;4.53;;
56736;SDS011;42618;51.226;4.910;2023-08-30T06:47:42;9.17;;;4.00;;
56736;SDS011;42618;51.226;4.910;2023-08-30T06:50:09;11.85;;;4.38;;
56736;SDS011;42618;51.226;4.910;2023-08-30T06:52:36;11.17;;;4.60;;
56736;SDS011;42618;51.226;4.910;2023-08-30T06:55:03;11.15;;;4.35;;
56736;SDS011;42618;51.226;4.910;2023-08-30T06:57:30;9.27;;;4.22;;
56736;SDS011;42618;51.226;4.910;2023-08-30T06:59:57;8.20;;;3.75;;
56736;SDS011;42618;51.226;4.910;2023-08-30T07:02:25;4.53;;;3.30;;
56736;SDS011;42618;51.226;4.910;2023-08-30T07:04:54;5.13;;;2.88;;
56736;SDS011;42618;51.226;4.910;2023-08-30T07:07:21;5.72;;;3.40;;
56736;SDS011;42618;51.226;4.910;2023-08-30T07:09:48;5.90;;;3.05;;
56736;SDS011;42618;51.226;4.910;2023-08-30T07:12:14;22.02;;;9.68;;
56736;SDS011;42618;51.226;4.910;2023-08-30T07:14:41;11.35;;;6.60;;
56736;SDS011;42618;51.226;4.910;2023-08-30T07:19:36;5.20;;;3.00;;
56736;SDS011;42618;51.226;4.910;2023-08-30T07:22:02;8.02;;;3.08;;
56736;SDS011;42618;51.226;4.910;2023-08-30T07:24:30;5.05;;;3.42;;
56736;SDS011;42618;51.226;4.910;2023-08-30T07:26:57;6.60;;;3.47;;
56736;SDS011;42618;51.226;4.910;2023-08-30T07:29:24;4.88;;;3.28;;
56736;SDS011;42618;51.226;4.910;2023-08-30T07:31:51;6.68;;;3.92;;
56736;SDS011;42618;51.226;4.910;2023-08-30T07:34:20;6.45;;;3.28;;
56736;SDS011;42618;51.226;4.910;2023-08-30T07:36:47;6.25;;;3.42;;
56736;SDS011;42618;51.226;4.910;2023-08-30T07:39:14;5.88;;;3.55;;
56736;SDS011;42618;51.226;4.910;2023-08-30T07:41:41;5.95;;;3.80;;
56736;SDS011;42618;51.226;4.910;2023-08-30T07:44:07;5.28;;;2.97;;
56736;SDS011;42618;51.226;4.910;2023-08-30T07:46:35;4.93;;;2.63;;
56736;SDS011;42618;51.226;4.910;2023-08-30T07:49:02;5.45;;;3.28;;
56736;SDS011;42618;51.226;4.910;2023-08-30T07:51:29;8.07;;;3.28;;
56736;SDS011;42618;51.226;4.910;2023-08-30T07:53:56;4.63;;;2.73;;
56736;SDS011;42618;51.226;4.910;2023-08-30T07:56:23;9.63;;;3.45;;
56736;SDS011;42618;51.226;4.910;2023-08-30T07:58:49;3.13;;;2.28;;
56736;SDS011;42618;51.226;4.910;2023-08-30T08:01:16;5.30;;;3.45;;
56736;SDS011;42618;51.226;4.910;2023-08-30T08:03:43;5.35;;;3.17;;
56736;SDS011;42618;51.226;4.910;2023-08-30T08:06:29;5.93;;;3.37;;
56736;SDS011;42618;51.226;4.910;2023-08-30T08:08:57;11.73;;;8.70;;
56736;SDS011;42618;51.226;4.910;2023-08-30T08:11:25;8.40;;;6.22;;
56736;SDS011;42618;51.226;4.910;2023-08-30T08:13:52;4.72;;;2.92;;
56736;SDS011;42618;51.226;4.910;2023-08-30T08:16:19;7.25;;;3.17;;
56736;SDS011;42618;51.226;4.910;2023-08-30T08:18:46;6.35;;;3.50;;
56736;SDS011;42618;51.226;4.910;2023-08-30T08:21:14;3.67;;;2.33;;
56736;SDS011;42618;51.226;4.910;2023-08-30T08:23:41;3.95;;;2.72;;
56736;SDS011;42618;51.226;4.910;2023-08-30T08:26:08;4.20;;;2.97;;
56736;SDS011;42618;51.226;4.910;2023-08-30T08:28:34;4.15;;;2.90;;
56736;SDS011;42618;51.226;4.910;2023-08-30T08:31:01;6.80;;;3.17;;
56736;SDS011;42618;51.226;4.910;2023-08-30T08:33:28;5.53;;;2.85;;
56736;SDS011;42618;51.226;4.910;2023-08-30T08:35:55;4.53;;;2.92;;
56736;SDS011;42618;51.226;4.910;2023-08-30T08:38:22;4.45;;;2.70;;
56736;SDS011;42618;51.226;4.910;2023-08-30T08:40:49;4.03;;;2.38;;
56736;SDS011;42618;51.226;4.910;2023-08-30T08:43:19;4.72;;;2.65;;
56736;SDS011;42618;51.226;4.910;2023-08-30T08:45:47;3.47;;;2.60;;
56736;SDS011;42618;51.226;4.910;2023-08-30T08:48:14;3.28;;;2.58;;
56736;SDS011;42618;51.226;4.910;2023-08-30T08:50:41;3.47;;;2.57;;
56736;SDS011;42618;51.226;4.910;2023-08-30T08:55:36;3.93;;;2.80;;
56736;SDS011;42618;51.226;4.910;2023-08-30T08:58:03;3.28;;;2.80;;
56736;SDS011;42618;51.226;4.910;2023-08-30T09:00:30;3.38;;;2.30;;
56736;SDS011;42618;51.226;4.910;2023-08-30T09:02:58;6.32;;;3.03;;
56736;SDS011;42618;51.226;4.910;2023-08-30T09:05:25;5.80;;;3.00;;
56736;SDS011;42618;51.226;4.910;2023-08-30T09:10:21;3.83;;;2.88;;
56736;SDS011;42618;51.226;4.910;2023-08-30T09:12:48;4.00;;;2.50;;
56736;SDS011;42618;51.226;4.910;2023-08-30T09:15:15;3.93;;;2.27;;
56736;SDS011;42618;51.226;4.910;2023-08-30T09:17:45;5.03;;;2.92;;
56736;SDS011;42618;51.226;4.910;2023-08-30T09:20:13;4.50;;;2.50;;
56736;SDS011;42618;51.226;4.910;2023-08-30T09:22:41;5.15;;;3.10;;
56736;SDS011;42618;51.226;4.910;2023-08-30T09:25:09;3.67;;;2.60;;
56736;SDS011;42618;51.226;4.910;2023-08-30T09:27:37;5.97;;;3.60;;
56736;SDS011;42618;51.226;4.910;2023-08-30T09:30:07;6.30;;;4.18;;
56736;SDS011;42618;51.226;4.910;2023-08-30T09:32:40;3.05;;;2.38;;
56736;SDS011;42618;51.226;4.910;2023-08-30T09:35:08;6.20;;;3.20;;
56736;SDS011;42618;51.226;4.910;2023-08-30T09:37:35;4.80;;;2.85;;
56736;SDS011;42618;51.226;4.910;2023-08-30T09:40:02;2.58;;;2.05;;
56736;SDS011;42618;51.226;4.910;2023-08-30T09:42:30;5.78;;;3.00;;
56736;SDS011;42618;51.226;4.910;2023-08-30T09:44:57;4.95;;;3.53;;
56736;SDS011;42618;51.226;4.910;2023-08-30T09:47:25;4.82;;;2.83;;
56736;SDS011;42618;51.226;4.910;2023-08-30T09:49:55;6.65;;;3.25;;
56736;SDS011;42618;51.226;4.910;2023-08-30T09:52:24;5.28;;;3.70;;
56736;SDS011;42618;51.226;4.910;2023-08-30T09:54:55;6.30;;;3.55;;
56736;SDS011;42618;51.226;4.910;2023-08-30T09:57:22;7.50;;;3.47;;
56736;SDS011;42618;51.226;4.910;2023-08-30T09:59:50;5.10;;;3.38;;
56736;SDS011;42618;51.226;4.910;2023-08-30T10:02:17;7.07;;;3.75;;
56736;SDS011;42618;51.226;4.910;2023-08-30T10:04:46;4.32;;;3.70;;
56736;SDS011;42618;51.226;4.910;2023-08-30T10:07:15;5.70;;;4.00;;
56736;SDS011;42618;51.226;4.910;2023-08-30T10:09:42;4.93;;;3.92;;
56736;SDS011;42618;51.226;4.910;2023-08-30T10:12:29;6.32;;;3.72;;
56736;SDS011;42618;51.226;4.910;2023-08-30T10:14:59;6.30;;;4.15;;
56736;SDS011;42618;51.226;4.910;2023-08-30T10:17:27;8.32;;;5.55;;
56736;SDS011;42618;51.226;4.910;2023-08-30T10:19:56;6.32;;;3.47;;
56736;SDS011;42618;51.226;4.910;2023-08-30T10:22:23;5.10;;;3.10;;
56736;SDS011;42618;51.226;4.910;2023-08-30T10:24:52;6.88;;;3.38;;
56736;SDS011;42618;51.226;4.910;2023-08-30T10:27:28;4.00;;;3.58;;
56736;SDS011;42618;51.226;4.910;2023-08-30T10:30:02;11.13;;;6.13;;
56736;SDS011;42618;51.226;4.910;2023-08-30T10:32:32;6.28;;;3.50;;
56736;SDS011;42618;51.226;4.910;2023-08-30T10:35:05;5.03;;;4.00;;
56736;SDS011;42618;51.226;4.910;2023-08-30T10:37:32;6.00;;;4.20;;
56736;SDS011;42618;51.226;4.910;2023-08-30T10:40:03;5.88;;;4.32;;
56736;SDS011;42618;51.226;4.910;2023-08-30T10:42:30;5.97;;;4.53;;
56736;SDS011;42618;51.226;4.910;2023-08-30T10:44:57;6.63;;;4.30;;
56736;SDS011;42618;51.226;4.910;2023-08-30T10:47:29;6.82;;;4.15;;
56736;SDS011;42618;51.226;4.910;2023-08-30T10:49:58;5.53;;;4.72;;
56736;SDS011;42618;51.226;4.910;2023-08-30T10:52:27;6.10;;;4.72;;
56736;SDS011;42618;51.226;4.910;2023-08-30T10:55:14;7.25;;;5.03;;
56736;SDS011;42618;51.226;4.910;2023-08-30T10:57:43;6.47;;;4.07;;
56736;SDS011;42618;51.226;4.910;2023-08-30T11:00:15;7.70;;;4.38;;
56736;SDS011;42618;51.226;4.910;2023-08-30T11:02:47;5.55;;;4.38;;
56736;SDS011;42618;51.226;4.910;2023-08-30T11:05:16;7.78;;;4.50;;
56736;SDS011;42618;51.226;4.910;2023-08-30T11:07:44;4.95;;;4.03;;
56736;SDS011;42618;51.226;4.910;2023-08-30T11:10:11;4.53;;;3.78;;
56736;SDS011;42618;51.226;4.910;2023-08-30T11:12:42;4.10;;;3.67;;
56736;SDS011;42618;51.226;4.910;2023-08-30T11:15:13;4.78;;;3.28;;
56736;SDS011;42618;51.226;4.910;2023-08-30T11:17:43;4.70;;;3.75;;
56736;SDS011;42618;51.226;4.910;2023-08-30T11:20:15;4.25;;;3.80;;
56736;SDS011;42618;51.226;4.910;2023-08-30T11:22:47;6.53;;;3.53;;
56736;SDS011;42618;51.226;4.910;2023-08-30T11:25:15;5.35;;;3.85;;
56736;SDS011;42618;51.226;4.910;2023-08-30T11:27:44;5.68;;;3.45;;
56736;SDS011;42618;51.226;4.910;2023-08-30T11:32:39;10.35;;;5.40;;
56736;SDS011;42618;51.226;4.910;2023-08-30T11:35:09;6.75;;;4.18;;
56736;SDS011;42618;51.226;4.910;2023-08-30T11:37:36;8.40;;;3.30;;
56736;SDS011;42618;51.226;4.910;2023-08-30T11:40:03;7.55;;;1.55;;
56736;SDS011;42618;51.226;4.910;2023-08-30T11:42:32;6.55;;;1.08;;
56736;SDS011;42618;51.226;4.910;2023-08-30T11:44:59;4.78;;;1.25;;
56736;SDS011;42618;51.226;4.910;2023-08-30T11:47:27;7.32;;;0.90;;
56736;SDS011;42618;51.226;4.910;2023-08-30T11:49:54;4.22;;;1.05;;
56736;SDS011;42618;51.226;4.910;2023-08-30T11:52:23;6.40;;;1.08;;
56736;SDS011;42618;51.226;4.910;2023-08-30T11:54:51;5.80;;;1.55;;
56736;SDS011;42618;51.226;4.910;2023-08-30T11:57:19;8.40;;;1.25;;
56736;SDS011;42618;51.226;4.910;2023-08-30T11:59:47;6.88;;;1.27;;
56736;SDS011;42618;51.226;4.910;2023-08-30T12:02:15;3.50;;;1.08;;
56736;SDS011;42618;51.226;4.910;2023-08-30T12:04:46;6.78;;;1.02;;
56736;SDS011;42618;51.226;4.910;2023-08-30T12:07:23;7.18;;;1.23;;
56736;SDS011;42618;51.226;4.910;2023-08-30T12:12:34;3.47;;;1.23;;
56736;SDS011;42618;51.226;4.910;2023-08-30T12:15:08;3.90;;;1.25;;
56736;SDS011;42618;51.226;4.910;2023-08-30T12:17:38;6.15;;;0.98;;
56736;SDS011;42618;51.226;4.910;2023-08-30T12:20:05;6.77;;;1.17;;
56736;SDS011;42618;51.226;4.910;2023-08-30T12:22:36;3.63;;;0.90;;
56736;SDS011;42618;51.226;4.910;2023-08-30T12:25:15;3.22;;;0.90;;
56736;SDS011;42618;51.226;4.910;2023-08-30T12:27:46;5.72;;;1.15;;
56736;SDS011;42618;51.226;4.910;2023-08-30T12:30:14;2.72;;;0.70;;
56736;SDS011;42618;51.226;4.910;2023-08-30T12:32:43;4.07;;;0.57;;
56736;SDS011;42618;51.226;4.910;2023-08-30T12:35:11;6.45;;;1.10;;
56736;SDS011;42618;51.226;4.910;2023-08-30T12:37:38;7.80;;;0.88;;
56736;SDS011;42618;51.226;4.910;2023-08-30T12:40:05;4.97;;;0.80;;
56736;SDS011;42618;51.226;4.910;2023-08-30T12:42:33;1.98;;;0.60;;
56736;SDS011;42618;51.226;4.910;2023-08-30T12:45:00;3.05;;;0.90;;
56736;SDS011;42618;51.226;4.910;2023-08-30T12:47:27;5.45;;;0.93;;
56736;SDS011;42618;51.226;4.910;2023-08-30T12:49:55;5.88;;;0.98;;
56736;SDS011;42618;51.226;4.910;2023-08-30T12:52:22;3.33;;;0.63;;
56736;SDS011;42618;51.226;4.910;2023-08-30T12:54:49;13.33;;;6.40;;
56736;SDS011;42618;51.226;4.910;2023-08-30T12:57:18;5.93;;;1.55;;
56736;SDS011;42618;51.226;4.910;2023-08-30T12:59:45;5.50;;;1.17;;
56736;SDS011;42618;51.226;4.910;2023-08-30T13:02:11;8.13;;;1.23;;
56736;SDS011;42618;51.226;4.910;2023-08-30T13:04:38;5.70;;;1.00;;
56736;SDS011;42618;51.226;4.910;2023-08-30T13:07:05;6.47;;;1.10;;
56736;SDS011;42618;51.226;4.910;2023-08-30T13:09:32;6.25;;;1.23;;
56736;SDS011;42618;51.226;4.910;2023-08-30T13:11:58;5.28;;;0.80;;
56736;SDS011;42618;51.226;4.910;2023-08-30T13:14:25;3.78;;;1.00;;
56736;SDS011;42618;51.226;4.910;2023-08-30T13:16:52;6.77;;;1.27;;
56736;SDS011;42618;51.226;4.910;2023-08-30T13:19:19;6.20;;;0.90;;
56736;SDS011;42618;51.226;4.910;2023-08-30T13:21:45;5.83;;;1.10;;
56736;SDS011;42618;51.226;4.910;2023-08-30T13:24:12;5.07;;;0.95;;
56736;SDS011;42618;51.226;4.910;2023-08-30T13:26:39;5.07;;;0.90;;
56736;SDS011;42618;51.226;4.910;2023-08-30T13:29:06;5.43;;;0.90;;
56736;SDS011;42618;51.226;4.910;2023-08-30T13:34:00;6.43;;;0.73;;
56736;SDS011;42618;51.226;4.910;2023-08-30T13:36:27;8.55;;;0.80;;
56736;SDS011;42618;51.226;4.910;2023-08-30T13:38:57;8.32;;;1.05;;
56736;SDS011;42618;51.226;4.910;2023-08-30T13:41:24;5.60;;;1.05;;
56736;SDS011;42618;51.226;4.910;2023-08-30T13:43:50;5.55;;;1.27;;
56736;SDS011;42618;51.226;4.910;2023-08-30T13:46:17;8.23;;;1.80;;
56736;SDS011;42618;51.226;4.910;2023-08-30T13:48:45;3.90;;;0.70;;
56736;SDS011;42618;51.226;4.910;2023-08-30T13:51:12;5.65;;;1.00;;
56736;SDS011;42618;51.226;4.910;2023-08-30T13:53:39;4.85;;;1.02;;
56736;SDS011;42618;51.226;4.910;2023-08-30T13:56:05;3.65;;;0.60;;
56736;SDS011;42618;51.226;4.910;2023-08-30T13:58:34;5.60;;;0.70;;
56736;SDS011;42618;51.226;4.910;2023-08-30T14:01:14;6.63;;;1.63;;
56736;SDS011;42618;51.226;4.910;2023-08-30T14:03:50;4.65;;;0.80;;
56736;SDS011;42618;51.226;4.910;2023-08-30T14:06:16;4.63;;;0.60;;
56736;SDS011;42618;51.226;4.910;2023-08-30T14:08:43;2.17;;;0.52;;
56736;SDS011;42618;51.226;4.910;2023-08-30T14:11:10;3.47;;;0.57;;
56736;SDS011;42618;51.226;4.910;2023-08-30T14:13:37;3.08;;;0.47;;
56736;SDS011;42618;51.226;4.910;2023-08-30T14:16:04;1.00;;;0.28;;
56736;SDS011;42618;51.226;4.910;2023-08-30T14:18:31;1.67;;;0.40;;
56736;SDS011;42618;51.226;4.910;2023-08-30T14:20:58;3.15;;;0.47;;
56736;SDS011;42618;51.226;4.910;2023-08-30T14:23:26;1.60;;;0.28;;
56736;SDS011;42618;51.226;4.910;2023-08-30T14:25:59;2.63;;;0.40;;
56736;SDS011;42618;51.226;4.910;2023-08-30T14:28:36;2.22;;;0.30;;
56736;SDS011;42618;51.226;4.910;2023-08-30T14:31:06;3.53;;;0.47;;
56736;SDS011;42618;51.226;4.910;2023-08-30T14:33:34;1.55;;;0.30;;
56736;SDS011;42618;51.226;4.910;2023-08-30T14:36:01;6.00;;;0.60;;
56736;SDS011;42618;51.226;4.910;2023-08-30T14:38:28;3.55;;;0.50;;
56736;SDS011;42618;51.226;4.910;2023-08-30T14:40:56;3.08;;;0.70;;
56736;SDS011;42618;51.226;4.910;2023-08-30T14:43:24;3.05;;;0.30;;
56736;SDS011;42618;51.226;4.910;2023-08-30T14:45:51;4.50;;;0.60;;
56736;SDS011;42618;51.226;4.910;2023-08-30T14:48:34;4.55;;;0.50;;
56736;SDS011;42618;51.226;4.910;2023-08-30T14:51:04;10.13;;;0.70;;
56736;SDS011;42618;51.226;4.910;2023-08-30T14:53:32;4.35;;;0.55;;
56736;SDS011;42618;51.226;4.910;2023-08-30T14:55:58;3.37;;;0.50;;
56736;SDS011;42618;51.226;4.910;2023-08-30T14:58:25;2.05;;;0.40;;
56736;SDS011;42618;51.226;4.910;2023-08-30T15:00:52;3.70;;;0.40;;
56736;SDS011;42618;51.226;4.910;2023-08-30T15:03:19;3.60;;;0.30;;
56736;SDS011;42618;51.226;4.910;2023-08-30T15:05:52;2.58;;;0.30;;
56736;SDS011;42618;51.226;4.910;2023-08-30T15:08:21;7.90;;;0.40;;
56736;SDS011;42618;51.226;4.910;2023-08-30T15:10:48;2.67;;;0.20;;
56736;SDS011;42618;51.226;4.910;2023-08-30T15:13:15;3.35;;;0.60;;
56736;SDS011;42618;51.226;4.910;2023-08-30T15:15:42;3.47;;;0.30;;
56736;SDS011;42618;51.226;4.910;2023-08-30T15:18:09;4.97;;;0.47;;